Tiempo atmosférico en la estación meteorológica de Agüimes, Las Palmas (306 m.)



Fecha
DESCASC
Temp. máxima en grados centígrados (hora)
DESCASC
Temp. mínima en grados centígrados (hora)
DESCASC
Temp. media en grados centígrados
DESCASC
Racha de viento máxima en m/sg (hora)
DESCASC
Velocidad máxima media en intervalos de 10 minutos(hora)
DESCASC
Precipitaciones diarias en mm
DESCASC
Precipitaciones de 00:00 a 06:00 en mm
DESCASC
Precipitaciones de 06:00 a 12:00 en mm
DESCASC
Precipitaciones de 12:00 a 18:00 en mm
DESCASC
Precipitaciones de 18:00 a 24:00 en mm
DESCASC
24-05-2020 33.2 (18:20) 25.6 (05:10) 29.4 19.44 (03:20) 14.17 (04:10) 0 0 0 0 0
23-05-2020 35.7 (14:10) 24.3 (02:00) 30 19.72 (02:50) 12.78 (03:00) 0 0 0 0 0
22-05-2020 31.4 (16:20) 17.7 (00:00) 24.6 19.44 (23:30) 13.33 (22:10) 0 0 0 0 0
21-05-2020 27.5 (13:30) 17.4 (00:00) 22.4 16.39 (14:40) 10.83 (11:30) 0 0 0 0 0
20-05-2020 27.8 (12:40) 16.2 (00:00) 22 16.11 (23:20) 10.83 (23:59) 0 0 0 0 0
19-05-2020 27.7 (14:40) 14.2 (00:00) 21 10.28 (14:50) 6.39 (14:40) 0 0 0 0 0
18-05-2020 25.2 (15:40) 15.4 (00:00) 20.3 13.89 (00:20) 9.72 (14:50) 0 0 0 0 0
17-05-2020 22.2 (14:30) 15.4 (00:00) 18.8 15.56 (16:40) 10.83 (16:30) 0 0 0 0 0
16-05-2020 22.8 (15:00) 15.6 (00:00) 19.2 17.78 (14:40) 10.83 (17:20) 0 0 0 0 0
15-05-2020 23.5 (14:40) 15.4 (00:00) 19.4 14.72 (06:50) 10 (13:50) 0 0 0 0 0
14-05-2020 21.9 (12:40) 14.3 (00:00) 18.1 12.22 (19:50) 8.33 (19:40) 0 0 0 0 0
13-05-2020 23.6 (13:40) 15.5 (00:00) 19.6 9.44 (23:50) 5.83 (23:40) 0 0 0 0 0
12-05-2020 23 (14:50) 16.8 (00:00) 19.9 8.89 (13:30) 5.83 (13:30) 0 0 0 0 0
11-05-2020 24.7 (12:10) 15.5 (00:00) 20.1 9.17 (15:00) 5.83 (12:40) 0 0 0 0 0
10-05-2020 26.6 (14:10) 15.9 (00:00) 21.3 13.89 (11:10) 8.06 (12:50) 0 0 0 0 0
09-05-2020 25.1 (14:00) 15.1 (00:00) 20.1 10 (14:10) 6.39 (14:10) 0 0 0 0 0
08-05-2020 25.1 (14:30) 15.7 (00:00) 20.4 13.61 (12:40) 9.17 (16:00) 0 0 0 0 0
07-05-2020 23.3 (13:10) 16.1 (00:00) 19.7 14.17 (12:50) 9.17 (12:30) 0 0 0 0 0
06-05-2020 23.1 (12:10) 16.1 (00:00) 19.6 16.39 (18:40) 9.72 (17:10) 0 0 0 0 0
05-05-2020 23.9 (14:40) 14.6 (00:00) 19.3 15.56 (16:20) 11.11 (16:20) 0 0 0 0 0
04-05-2020 24.2 (12:10) 15.3 (00:00) 19.8 10.83 (20:20) 7.5 (20:20) 0 0 0 0 0
03-05-2020 26.5 (14:40) 13.6 (00:00) 20.1 7.78 (17:30) 5.28 (17:40) 0 0 0 0 0
02-05-2020 25.6 (14:40) 14.8 (00:00) 20.2 13.61 (05:00) 9.72 (04:50) 0 0 0 0 0
01-05-2020 23.9 (16:40) 15.8 (00:00) 19.8 17.22 (14:30) 11.11 (14:50) 0 0 0 0 0
30-04-2020 26.4 (16:10) 16 (00:00) 21.2 17.22 (14:00) 10.28 (14:00) 0 0 0 0 0
29-04-2020 23.1 (14:20) 15.7 (00:00) 19.4 16.94 (12:20) 10.83 (12:20) 0 0 0 0 0
28-04-2020 24.9 (15:20) 13.9 (00:00) 19.4 15 (18:40) 8.61 (19:00) 0 0 0 0 0
27-04-2020 21.8 (12:10) 13 (00:00) 17.4 5.83 (12:30) 3.06 (11:50) 0 0 0 0 0
26-04-2020 22.9 (14:40) 12.8 (00:00) 17.8 11.11 (14:00) 6.39 (13:50) 0 0 0 0 0

Gráficas

Temp. máximas Temp. mínimas Temp. medias Precipitaciones Rachas de viento máximas Velocidades máximas media en intervalos de 10 minutos

Datos horarios

Fecha y hora oficial Temperatura (ºC) Velocidad del viento (km/h) Dirección del viento Racha (km/h) Dirección de racha Precipitación (mm) Presión (hPa) Tendencia (hPa) Humedad (%)
2020-05-25 23:00:00 27.6 25 Norte 37 Norte 0 -- -- 20
2020-05-25 22:00:00 27.3 19 Norte 30 Nordeste 0 -- -- 23
2020-05-25 21:00:00 27.4 6 Norte 34 Norte 0 -- -- 26
2020-05-25 20:00:00 29 26 Nordeste 39 Nordeste 0 -- -- 23
2020-05-25 19:00:00 29.4 29 Nordeste 40 Nordeste 0 -- -- 32
2020-05-25 18:00:00 30.4 30 Nordeste 42 Nordeste 0 -- -- 34
2020-05-25 17:00:00 31.5 29 Nordeste 40 Nordeste 0 -- -- 32
2020-05-25 16:00:00 31.3 22 Nordeste 31 Nordeste 0 -- -- 42
2020-05-25 15:00:00 29.9 21 Nordeste 31 Nordeste 0 -- -- 48
2020-05-25 14:00:00 30 21 Nordeste 31 Nordeste 0 -- -- 48
2020-05-25 13:00:00 29.9 17 Nordeste 27 Nordeste 0 -- -- 46
2020-05-25 12:00:00 30.4 15 Nordeste 21 Este 0 -- -- 44
2020-05-25 11:00:00 30.7 10 Nordeste 15 Nordeste 0 -- -- 38
2020-05-25 10:00:00 26.9 13 Este 24 Nordeste 0 -- -- 52
2020-05-25 09:00:00 26 14 Nordeste 31 Norte 0 -- -- 50
2020-05-25 08:00:00 26.8 20 Nordeste 34 Norte 0 -- -- 27
2020-05-25 07:00:00 28.1 25 Norte 44 Norte 0 -- -- 25
2020-05-25 06:00:00 25.5 27 Nordeste 36 Nordeste 0 -- -- 28
2020-05-25 05:00:00 27.1 23 Norte 41 Norte 0 -- -- 24
2020-05-25 04:00:00 28.1 31 Norte 48 Norte 0 -- -- 21
2020-05-25 03:00:00 27.6 32 Norte 48 Norte 0 -- -- 22
2020-05-25 02:00:00 27.7 29 Norte 44 Norte 0 -- -- 22
2020-05-25 01:00:00 27.5 26 Norte 43 Norte 0 -- -- 24
2020-05-25 00:00:00 27.6 27 Norte 39 Norte 0 -- -- 26
2020-05-24 23:00:00 27.6 28 Norte 43 Norte 0 -- -- 27
2020-05-24 22:00:00 27.3 26 Norte 41 Norte 0 -- -- 27
2020-05-24 21:00:00 27.9 31 Norte 41 Norte 0 -- -- 27
2020-05-24 20:00:00 29.3 20 Nordeste 31 Norte 0 -- -- 30
2020-05-24 19:00:00 31 23 Nordeste 36 Nordeste 0 -- -- 33
2020-05-24 18:00:00 32.3 24 Nordeste 37 Nordeste 0 -- -- 25
2020-05-24 17:00:00 32 29 Nordeste 43 Nordeste 0 -- -- 26
2020-05-24 16:00:00 32.2 31 Nordeste 48 Norte 0 -- -- 26
2020-05-24 15:00:00 31.8 34 Nordeste 47 Nordeste 0 -- -- 29
2020-05-24 14:00:00 32.2 30 Nordeste 47 Nordeste 0 -- -- 26
2020-05-24 13:00:00 30.7 31 Nordeste 51 Nordeste 0 -- -- 27
2020-05-24 12:00:00 29.7 35 Nordeste 57 Nordeste 0 -- -- 30
2020-05-24 11:00:00 29 41 Nordeste 55 Norte 0 -- -- 31
2020-05-24 10:00:00 30 37 Norte 61 Nordeste 0 -- -- 23
2020-05-24 09:00:00 28.1 39 Norte 59 Norte 0 -- -- 24
2020-05-24 08:00:00 26.6 40 Norte 62 Norte 0 -- -- 24
2020-05-24 07:00:00 25.8 43 Norte 66 Norte 0 -- -- 26
2020-05-24 06:00:00 25.8 48 Norte 66 Norte 0 -- -- 27
2020-05-24 05:00:00 25.8 46 Norte 69 Norte 0 -- -- 29
2020-05-24 04:00:00 25.9 48 Norte 70 Norte 0 -- -- 29
2020-05-24 03:00:00 26.5 47 Norte 67 Norte 0 -- -- 28
2020-05-24 02:00:00 27.2 44 Norte 61 Norte 0 -- -- 26
2020-05-24 01:00:00 27.5 42 Norte 62 Norte 0 -- -- 28
2020-05-24 00:00:00 26.6 37 Norte 54 Norte 0 -- -- 31
2020-05-23 23:00:00 27 34 Nordeste 52 Norte 0 -- -- 34
2020-05-23 22:00:00 30.1 26 Norte 41 Norte 0 -- -- 23
2020-05-23 21:00:00 29.9 21 Norte 33 Norte 0 -- -- 27
2020-05-23 20:00:00 29 13 Nordeste 22 Nordeste 0 -- -- 43
2020-05-23 19:00:00 31.5 15 Nordeste 27 Nordeste 0 -- -- 37
2020-05-23 18:00:00 30.8 19 Nordeste 33 Nordeste 0 -- -- 42
2020-05-23 17:00:00 34 19 Nordeste 39 Nordeste 0 -- -- 36
2020-05-23 16:00:00 32 26 Nordeste 44 Nordeste 0 -- -- 40
2020-05-23 15:00:00 32.8 25 Nordeste 41 Nordeste 0 -- -- 41
2020-05-23 14:00:00 35.6 23 Norte 39 Norte 0 -- -- 23
2020-05-23 13:00:00 34.5 28 Norte 48 Norte 0 -- -- 23
2020-05-23 12:00:00 33.7 26 Norte 46 Nordeste 0 -- -- 22
2020-05-23 11:00:00 32 30 Nordeste 51 Norte 0 -- -- 23
2020-05-23 10:00:00 30.8 34 Norte 55 Norte 0 -- -- 22
2020-05-23 09:00:00 29 37 Norte 55 Norte 0 -- -- 25
2020-05-23 08:00:00 27.4 34 Norte 51 Norte 0 -- -- 27
2020-05-23 07:00:00 26.4 33 Norte 54 Norte 0 -- -- 30
2020-05-23 06:00:00 26.6 37 Norte 55 Norte 0 -- -- 30
2020-05-23 05:00:00 26.6 41 Norte 60 Norte 0 -- -- 31
2020-05-23 04:00:00 26 40 Norte 67 Norte 0 -- -- 33
2020-05-23 03:00:00 25.1 46 Norte 71 Norte 0 -- -- 38
2020-05-23 02:00:00 24.3 41 Norte 66 Norte 0 -- -- 41
2020-05-23 01:00:00 26 44 Norte 67 Norte 0 -- -- 34
2020-05-23 00:00:00 26.7 44 Norte 70 Norte 0 -- -- 32
2020-05-22 23:00:00 25.9 43 Norte 65 Norte 0 -- -- 35
2020-05-22 22:00:00 25 45 Norte 62 Norte 0 -- -- 39
2020-05-22 21:00:00 26.5 36 Norte 54 Norte 0 -- -- 34
2020-05-22 20:00:00 27.9 36 Norte 54 Norte 0 -- -- 31
2020-05-22 19:00:00 29.8 34 Norte 51 Norte 0 -- -- 28
2020-05-22 18:00:00 30.5 32 Norte 50 Norte 0 -- -- 30
2020-05-22 17:00:00 31.3 31 Norte 53 Norte 0 -- -- 28
2020-05-22 16:00:00 30.7 35 Norte 51 Nordeste 0 -- -- 30
2020-05-22 15:00:00 30.7 37 Norte 56 Norte 0 -- -- 31
2020-05-22 14:00:00 30.7 36 Norte 52 Norte 0 -- -- 32
2020-05-22 13:00:00 30.3 37 Norte 58 Norte 0 -- -- 26
2020-05-22 12:00:00 29.4 37 Norte 59 Nordeste 0 -- -- 22
2020-05-22 11:00:00 28.3 37 Norte 70 Norte 0 -- -- 19
2020-05-22 10:00:00 26.9 35 Norte 57 Nordeste 0 -- -- 20
2020-05-22 09:00:00 24.4 31 Norte 49 Norte 0 -- -- 24
2020-05-22 08:00:00 22.1 29 Norte 45 Norte 0 -- -- 27
2020-05-22 07:00:00 19.1 26 Nordeste 38 Nordeste 0 -- -- 37
2020-05-22 06:00:00 21.2 25 Nordeste 41 Nordeste 0 -- -- 28
2020-05-22 05:00:00 22.3 18 Nordeste 45 Norte 0 -- -- 25
2020-05-22 04:00:00 23.8 23 Norte 47 Norte 0 -- -- 20
2020-05-22 03:00:00 24.3 28 Norte 45 Norte 0 -- -- 20
2020-05-22 02:00:00 23.4 28 Norte 55 Norte 0 -- -- 22
2020-05-22 01:00:00 21.2 30 Norte 44 Norte 0 -- -- 30
2020-05-22 00:00:00 17.7 5 Noroeste 20 Norte 0 -- -- 55
2020-05-21 23:00:00 18.5 5 Oeste 26 Oeste 0 -- -- 62
2020-05-21 22:00:00 19.8 9 Norte 36 Norte 0 -- -- 55
2020-05-21 21:00:00 19.9 19 Norte 43 Norte 0 -- -- 52
2020-05-21 20:00:00 20.2 31 Norte 53 Norte 0 -- -- 58
2020-05-21 19:00:00 22.7 33 Nordeste 46 Nordeste 0 -- -- 51
2020-05-21 18:00:00 24.7 34 Norte 50 Nordeste 0 -- -- 48
2020-05-21 17:00:00 25.3 31 Nordeste 49 Nordeste 0 -- -- 48
2020-05-21 16:00:00 25.9 31 Nordeste 52 Nordeste 0 -- -- 46
2020-05-21 15:00:00 25.6 36 Nordeste 59 Nordeste 0 -- -- 46
2020-05-21 14:00:00 27.3 26 Nordeste 44 Nordeste 0 -- -- 42
2020-05-21 13:00:00 25.7 27 Nordeste 50 Nordeste 0 -- -- 46
2020-05-21 12:00:00 24 35 Nordeste 54 Nordeste 0 -- -- 50
2020-05-21 11:00:00 23.5 31 Nordeste 43 Nordeste 0 -- -- 51
2020-05-21 10:00:00 22.4 25 Nordeste 36 Nordeste 0 -- -- 52
2020-05-21 09:00:00 20.8 13 Nordeste 31 Nordeste 0 -- -- 49
2020-05-21 08:00:00 17.8 17 Norte 38 Norte 0 -- -- 57
2020-05-21 07:00:00 18.1 28 Norte 47 Norte 0 -- -- 42
2020-05-21 06:00:00 18 30 Norte 47 Nordeste 0 -- -- 49
2020-05-21 05:00:00 17.9 31 Norte 48 Norte 0 -- -- 47
2020-05-21 04:00:00 19.1 26 Norte 48 Norte 0 -- -- 36
2020-05-21 03:00:00 19.7 27 Norte 54 Norte 0 -- -- 35
2020-05-21 02:00:00 20 29 Norte 51 Norte 0 -- -- 35
2020-05-21 01:00:00 20 32 Norte 57 Norte 0 -- -- 37
2020-05-21 00:00:00 20.3 39 Norte 58 Norte 0 -- -- 36
2020-05-20 23:00:00 20.5 30 Norte 57 Norte 0 -- -- 35
2020-05-20 22:00:00 20.8 32 Norte 52 Norte 0 -- -- 37
2020-05-20 21:00:00 21.7 33 Norte 53 Norte 0 -- -- 40
2020-05-20 20:00:00 23 30 Norte 46 Norte 0 -- -- 46
2020-05-20 19:00:00 25.3 26 Norte 46 Norte 0 -- -- 38
2020-05-20 18:00:00 26.1 30 Norte 53 Nordeste 0 -- -- 41
2020-05-20 17:00:00 26.5 38 Norte 55 Norte 0 -- -- 41
2020-05-20 16:00:00 27.1 36 Nordeste 55 Norte 0 -- -- 39
2020-05-20 15:00:00 27.1 37 Nordeste 53 Norte 0 -- -- 42
2020-05-20 14:00:00 27.1 35 Norte 54 Nordeste 0 -- -- 42
2020-05-20 13:00:00 27.4 30 Nordeste 48 Nordeste 0 -- -- 44
2020-05-20 12:00:00 27.5 30 Norte 45 Norte 0 -- -- 34
2020-05-20 11:00:00 27.1 26 Norte 46 Norte 0 -- -- 29
2020-05-20 10:00:00 26 26 Norte 48 Norte 0 -- -- 27
2020-05-20 09:00:00 24.8 25 Norte 42 Norte 0 -- -- 26
2020-05-20 08:00:00 23.3 27 Norte 43 Norte 0 -- -- 29
2020-05-20 07:00:00 21.9 24 Norte 39 Norte 0 -- -- 32
2020-05-20 06:00:00 21.2 22 Norte 35 Norte 0 -- -- 36
2020-05-20 05:00:00 17.8 4 Sur 19 Norte 0 -- -- 72
2020-05-20 04:00:00 17.1 5 Norte 14 Nordeste 0 -- -- 76
2020-05-20 03:00:00 16.2 5 Oeste 10 Sur 0 -- -- 86
2020-05-20 02:00:00 16.5 4 Sudoeste 8 Sur 0 -- -- 84
2020-05-20 01:00:00 16.9 0 Calma 5 Sudoeste 0 -- -- 81
2020-05-20 00:00:00 17.4 3 Sudoeste 6 Sudoeste 0 -- -- 79
2020-05-19 23:00:00 17.9 3 Nordeste 12 Este 0 -- -- 73
2020-05-19 22:00:00 18.5 3 Sudeste 10 Sur 0 -- -- 75
2020-05-19 21:00:00 19.4 6 Sur 16 Sur 0 -- -- 74
2020-05-19 20:00:00 20.8 11 Sur 18 Sur 0 -- -- 69
2020-05-19 19:00:00 22.4 14 Sur 26 Sur 0 -- -- 63
2020-05-19 18:00:00 24 18 Sur 33 Sudoeste 0 -- -- 59
2020-05-19 17:00:00 26.3 14 Sudoeste 36 Nordeste 0 -- -- 51
2020-05-19 16:00:00 26 15 Sur 33 Sur 0 -- -- 52
2020-05-19 15:00:00 27 11 Norte 37 Nordeste 0 -- -- 49
2020-05-19 14:00:00 27.5 18 Nordeste 34 Nordeste 0 -- -- 48
2020-05-19 13:00:00 26.8 22 Nordeste 33 Nordeste 0 -- -- 49
2020-05-19 12:00:00 26.5 17 Nordeste 28 Nordeste 0 -- -- 44
2020-05-19 11:00:00 24.6 15 Nordeste 28 Nordeste 0 -- -- 42
2020-05-19 10:00:00 20.9 6 Sudoeste 12 Sudoeste 0 -- -- 56
2020-05-19 09:00:00 18.3 4 Oeste 10 Oeste 0 -- -- 69
2020-05-19 08:00:00 15.2 2 Noroeste 10 Norte 0 -- -- 80
2020-05-19 07:00:00 14.2 5 Noroeste 8 Noroeste 0 -- -- 82
2020-05-19 06:00:00 14.7 5 Oeste 9 Noroeste 0 -- -- 82
2020-05-19 05:00:00 14.8 6 Noroeste 9 Noroeste 0 -- -- 82
2020-05-19 04:00:00 14.7 5 Noroeste 11 Noroeste 0 -- -- 82
2020-05-19 03:00:00 15.3 3 Noroeste 8 Noroeste 0 -- -- 83
2020-05-19 02:00:00 15.5 4 Noroeste 6 Noroeste 0 -- -- 81
2020-05-19 01:00:00 15.9 3 Noroeste 10 Oeste 0 -- -- 80
2020-05-19 00:00:00 16.5 2 Sudeste 6 Sur 0 -- -- 78
2020-05-18 23:00:00 17.9 3 Oeste 36 Norte 0 -- -- 73
2020-05-18 22:00:00 18.4 17 Norte 33 Norte 0 -- -- 65
2020-05-18 21:00:00 19 14 Norte 39 Norte 0 -- -- 64
2020-05-18 20:00:00 19.9 31 Norte 44 Nordeste 0 -- -- 64
2020-05-18 19:00:00 21.1 29 Norte 44 Norte 0 -- -- 60
2020-05-18 18:00:00 22.5 27 Norte 48 Norte 0 -- -- 55
2020-05-18 17:00:00 22.8 30 Norte 45 Nordeste 0 -- -- 57
2020-05-18 16:00:00 23.6 32 Nordeste 45 Norte 0 -- -- 56
2020-05-18 15:00:00 24.2 32 Nordeste 50 Nordeste 0 -- -- 50
2020-05-18 14:00:00 23.2 33 Nordeste 49 Nordeste 0 -- -- 53
2020-05-18 13:00:00 22.1 30 Norte 49 Nordeste 0 -- -- 54
2020-05-18 12:00:00 23 27 Nordeste 45 Nordeste 0 -- -- 52
2020-05-18 11:00:00 21.1 21 Norte 42 Nordeste 0 -- -- 58
2020-05-18 10:00:00 19.6 27 Norte 42 Norte 0 -- -- 58
2020-05-18 09:00:00 17.9 22 Norte 36 Norte 0 -- -- 66
2020-05-18 08:00:00 16.9 21 Norte 33 Norte 0 -- -- 66
2020-05-18 07:00:00 15.5 18 Norte 29 Nordeste 0 -- -- 75
2020-05-18 06:00:00 16 18 Norte 35 Norte 0 -- -- 72
2020-05-18 05:00:00 15.8 21 Norte 33 Norte 0 -- -- 77
2020-05-18 04:00:00 16 18 Norte 35 Norte 0 -- -- 79
2020-05-18 03:00:00 16.5 23 Norte 37 Nordeste 0 -- -- 79
2020-05-18 02:00:00 17 19 Norte 39 Norte 0 -- -- 71
2020-05-18 01:00:00 16.7 22 Norte 50 Norte 0 -- -- 69
2020-05-18 00:00:00 16.6 23 Norte 38 Norte 0 -- -- 65
2020-05-17 23:00:00 16.7 24 Norte 39 Nordeste 0 -- -- 64
2020-05-17 22:00:00 16.8 24 Norte 39 Norte 0 -- -- 59
2020-05-17 21:00:00 17.3 25 Norte 40 Norte 0 -- -- 57
2020-05-17 20:00:00 17.9 26 Norte 45 Norte 0 -- -- 60
2020-05-17 19:00:00 19.5 29 Norte 49 Norte 0 -- -- 58
2020-05-17 18:00:00 20.1 35 Norte 53 Norte 0 -- -- 61
2020-05-17 17:00:00 21 35 Norte 56 Norte 0 -- -- 59
2020-05-17 16:00:00 21.2 32 Nordeste 51 Nordeste 0 -- -- 59
2020-05-17 15:00:00 21.7 29 Norte 51 Norte 0 -- -- 58
2020-05-17 14:00:00 21.3 38 Norte 52 Norte 0 -- -- 55
2020-05-17 13:00:00 19.8 31 Norte 47 Norte 0 -- -- 59
2020-05-17 12:00:00 20.4 26 Norte 44 Norte 0 -- -- 57
2020-05-17 11:00:00 20.8 24 Norte 43 Norte 0 -- -- 57
2020-05-17 10:00:00 19 23 Norte 38 Norte 0 -- -- 64
2020-05-17 09:00:00 18 21 Norte 34 Norte 0 -- -- 67
2020-05-17 08:00:00 16.7 19 Norte 31 Norte 0 -- -- 77
2020-05-17 07:00:00 15.9 20 Norte 33 Norte 0 -- -- 79
2020-05-17 06:00:00 15.4 22 Norte 35 Norte 0 -- -- 84
2020-05-17 05:00:00 16.4 19 Norte 31 Norte 0 -- -- 73
2020-05-17 04:00:00 16.4 17 Norte 31 Norte 0 -- -- 73
2020-05-17 03:00:00 16.3 18 Norte 32 Norte 0 -- -- 73
2020-05-17 02:00:00 16.4 21 Norte 36 Norte 0 -- -- 72
2020-05-17 01:00:00 16.8 23 Norte 38 Norte 0 -- -- 70
2020-05-17 00:00:00 16.9 19 Norte 36 Norte 0 -- -- 58
2020-05-16 23:00:00 16.8 23 Norte 38 Norte 0 -- -- 66
2020-05-16 22:00:00 16.9 22 Norte 36 Nordeste 0 -- -- 70
2020-05-16 21:00:00 17 26 Norte 42 Norte 0 -- -- 65
2020-05-16 20:00:00 17.9 33 Norte 50 Norte 0 -- -- 59
2020-05-16 19:00:00 19.4 35 Norte 55 Norte 0 -- -- 49
2020-05-16 18:00:00 20.5 34 Norte 58 Nordeste 0 -- -- 49
2020-05-16 17:00:00 21.9 32 Norte 55 Norte 0 -- -- 49
2020-05-16 16:00:00 22.6 31 Norte 59 Norte 0 -- -- 40
2020-05-16 15:00:00 22.8 35 Norte 64 Nordeste 0 -- -- 39
2020-05-16 14:00:00 22.3 35 Norte 59 Nordeste 0 -- -- 43
2020-05-16 13:00:00 22.1 30 Norte 51 Norte 0 -- -- 44
2020-05-16 12:00:00 20.8 37 Norte 54 Norte 0 -- -- 43
2020-05-16 11:00:00 20 38 Norte 57 Norte 0 -- -- 45
2020-05-16 10:00:00 19 30 Norte 49 Norte 0 -- -- 48
2020-05-16 09:00:00 16.5 21 Norte 32 Norte 0 -- -- 68
2020-05-16 08:00:00 15.6 18 Norte 29 Norte 0 -- -- 77
2020-05-16 07:00:00 16.4 17 Norte 34 Noroeste 0 -- -- 53
2020-05-16 06:00:00 15.9 11 Norte 32 Norte 0 -- -- 62
2020-05-16 05:00:00 16.2 17 Norte 32 Norte 0 -- -- 72
2020-05-16 04:00:00 16.5 17 Norte 28 Norte 0 -- -- 72
2020-05-16 03:00:00 16.8 10 Norte 28 Norte 0 -- -- 66
2020-05-16 02:00:00 16.7 15 Norte 32 Nordeste 0 -- -- 72
2020-05-16 01:00:00 17 18 Norte 30 Norte 0 -- -- 67
2020-05-16 00:00:00 16.6 17 Norte 37 Norte 0 -- -- 67
2020-05-15 23:00:00 17 21 Norte 46 Norte 0 -- -- 69
2020-05-15 22:00:00 17.1 23 Norte 41 Norte 0 -- -- 66
2020-05-15 21:00:00 17.5 27 Norte 42 Norte 0 -- -- 63
2020-05-15 20:00:00 19.1 21 Norte 43 Norte 0 -- -- 52
2020-05-15 19:00:00 20 29 Norte 49 Norte 0 -- -- 50
2020-05-15 18:00:00 21 25 Norte 45 Norte 0 -- -- 52
2020-05-15 17:00:00 21.4 8 Sur 43 Norte 0 -- -- 54
2020-05-15 16:00:00 23.2 31 Norte 49 Norte 0 -- -- 46
2020-05-15 15:00:00 22.7 27 Norte 51 Norte 0 -- -- 44
2020-05-15 14:00:00 20.4 36 Norte 52 Norte 0 -- -- 58
2020-05-15 13:00:00 20.7 27 Norte 46 Norte 0 -- -- 58
2020-05-15 12:00:00 20.8 24 Norte 42 Norte 0 -- -- 56
2020-05-15 11:00:00 20.4 13 Nordeste 40 Norte 0 -- -- 56
2020-05-15 10:00:00 20.6 9 Sudeste 24 Sur 0 -- -- 52
2020-05-15 09:00:00 19.4 9 Nordeste 32 Oeste 0 -- -- 45
2020-05-15 08:00:00 17.7 13 Noroeste 33 Norte 0 -- -- 53
2020-05-15 07:00:00 16.8 21 Noroeste 53 Noroeste 0 -- -- 50
2020-05-15 06:00:00 16.7 19 Norte 32 Nordeste 0 -- -- 40
2020-05-15 05:00:00 15.7 15 Norte 33 Noroeste 0 -- -- 44
2020-05-15 04:00:00 16.6 14 Norte 39 Norte 0 -- -- 48
2020-05-15 03:00:00 15.6 20 Norte 32 Norte 0 -- -- 56
2020-05-15 02:00:00 15.7 17 Norte 27 Norte 0 -- -- 68
2020-05-15 01:00:00 16.1 20 Norte 35 Norte 0 -- -- 69
2020-05-15 00:00:00 16.2 16 Norte 40 Norte 0 -- -- 66
2020-05-14 23:00:00 17 23 Norte 42 Norte 0 -- -- 56
2020-05-14 22:00:00 17.3 21 Norte 42 Norte 0 -- -- 56
2020-05-14 21:00:00 17.6 23 Norte 41 Norte 0 -- -- 50
2020-05-14 20:00:00 18.3 27 Norte 44 Norte 0 -- -- 53
2020-05-14 19:00:00 18.9 10 Norte 19 Norte 0 -- -- 61
2020-05-14 18:00:00 18.6 9 Nordeste 14 Nordeste 0 -- -- 71
2020-05-14 17:00:00 18.8 6 Sudeste 20 Sudeste 0 -- -- 69
2020-05-14 16:00:00 19.7 9 Sur 28 Sur 0 -- -- 63
2020-05-14 15:00:00 20.7 15 Sur 30 Sur 0 -- -- 60
2020-05-14 14:00:00 20.3 15 Sur 28 Sur 0 -- -- 61
2020-05-14 13:00:00 20.7 19 Sur 30 Sur 0 -- -- 63
2020-05-14 12:00:00 20.5 12 Sudoeste 26 Sur 0 -- -- 61
2020-05-14 11:00:00 20.3 8 Sur 17 Sur 0 -- -- 59
2020-05-14 10:00:00 19.4 7 Sudeste 14 Sudeste 0 -- -- 58
2020-05-14 09:00:00 17.7 2 Este 8 Sur 0 -- -- 62
2020-05-14 08:00:00 15.4 3 Noroeste 9 Noroeste 0 -- -- 69
2020-05-14 07:00:00 14.9 7 Noroeste 12 Norte 0 -- -- 67
2020-05-14 06:00:00 14.5 8 Norte 13 Norte 0 -- -- 67
2020-05-14 05:00:00 15 5 Noroeste 10 Oeste 0 -- -- 72
2020-05-14 04:00:00 15.8 2 Noroeste 13 Norte 0 -- -- 62
2020-05-14 03:00:00 15.9 4 Noroeste 14 Noroeste 0 -- -- 60
2020-05-14 02:00:00 16.8 11 Norte 19 Norte 0 -- -- 51
2020-05-14 01:00:00 16.6 13 Noroeste 33 Norte 0 -- -- 55
2020-05-14 00:00:00 16.9 19 Norte 34 Noroeste 0 -- -- 59
2020-05-13 23:00:00 17.6 18 Norte 31 Norte 0 -- -- 56
2020-05-13 22:00:00 17.8 19 Norte 29 Norte 0 -- -- 58
2020-05-13 21:00:00 18.8 6 Nordeste 13 Sur 0 -- -- 66
2020-05-13 20:00:00 18.9 15 Sur 23 Sur 0 -- -- 70
2020-05-13 19:00:00 19.2 13 Sudeste 23 Sudeste 0 -- -- 73
2020-05-13 18:00:00 19.9 12 Sudeste 22 Este 0 -- -- 68
2020-05-13 17:00:00 20.7 11 Sudeste 25 Sudeste 0 -- -- 63
2020-05-13 16:00:00 21.2 16 Sur 25 Sur 0 -- -- 59
2020-05-13 15:00:00 21.6 11 Este 28 Este 0 -- -- 57
2020-05-13 14:00:00 23.5 15 Sudeste 31 Sudeste 0 -- -- 53
2020-05-13 13:00:00 22.8 10 Sur 26 Sur 0 -- -- 57
2020-05-13 12:00:00 20.9 11 Sur 20 Sudeste 0 -- -- 68
2020-05-13 11:00:00 19.7 9 Sudeste 17 Sudeste 0 -- -- 72
2020-05-13 10:00:00 20.4 6 Sudeste 12 Sudeste 0 -- -- 68
2020-05-13 09:00:00 18.2 5 Sudeste 10 Nordeste 0 -- -- 77
2020-05-13 08:00:00 15.9 5 Noroeste 11 Norte 0 -- -- 77
2020-05-13 07:00:00 15.6 8 Norte 10 Norte 0 -- -- 79
2020-05-13 06:00:00 16 4 Norte 9 Norte 0 -- -- 77
2020-05-13 05:00:00 15.9 4 Noroeste 8 Norte 0 -- -- 78
2020-05-13 04:00:00 16.1 3 Oeste 8 Sudoeste 0 -- -- 78
2020-05-13 03:00:00 16.8 4 Norte 6 Norte 0 -- -- 75
2020-05-13 02:00:00 17.1 3 Oeste 8 Sur 0 -- -- 74
2020-05-13 01:00:00 17.1 4 Sudoeste 8 Sudeste 0 -- -- 73
2020-05-13 00:00:00 17 2 Oeste 5 Noroeste 0 -- -- 73
2020-05-12 23:00:00 17.5 2 Oeste 10 Sur 0 -- -- 72
2020-05-12 22:00:00 17.8 2 Sudeste 14 Sur 0 -- -- 70
2020-05-12 21:00:00 18.4 7 Sur 14 Sur 0 -- -- 68
2020-05-12 20:00:00 19.5 9 Sur 16 Sudeste 0 -- -- 65
2020-05-12 19:00:00 20.5 7 Sur 21 Sur 0 -- -- 62
2020-05-12 18:00:00 20.3 13 Sur 23 Sur 0 -- -- 63
2020-05-12 17:00:00 21.1 13 Sudeste 28 Sudeste 0 -- -- 60
2020-05-12 16:00:00 20.8 13 Sur 32 Sudeste 0 -- -- 60
2020-05-12 15:00:00 23 15 Sur 26 Sur 0 -- -- 53
2020-05-12 14:00:00 21.2 14 Sur 32 Sur 0 -- -- 59
2020-05-12 13:00:00 20.9 15 Sur 24 Sur 0 -- -- 62
2020-05-12 12:00:00 20.8 13 Sur 25 Sur 0 -- -- 59
2020-05-12 11:00:00 19.8 11 Sur 17 Sur 0 -- -- 63
2020-05-12 10:00:00 19.6 11 Sur 20 Norte 0 -- -- 62
2020-05-12 09:00:00 19 5 Sur 12 Sur 0 -- -- 63
2020-05-12 08:00:00 17.9 3 Sudoeste 12 Noroeste 0 -- -- 61
2020-05-12 07:00:00 17 6 Noroeste 30 Norte 0 -- -- 54
2020-05-12 06:00:00 17.2 10 Noroeste 26 Norte 0 -- -- 52
2020-05-12 05:00:00 17.5 11 Noroeste 27 Norte 0 -- -- 51
2020-05-12 04:00:00 17.6 10 Noroeste 27 Noroeste 0 -- -- 54
2020-05-12 03:00:00 18.5 8 Noroeste 24 Noroeste 0 -- -- 52
2020-05-12 02:00:00 17.9 5 Este 13 Norte 0 -- -- 62
2020-05-12 01:00:00 18 3 Este 7 Sur 0 -- -- 78
2020-05-12 00:00:00 18.6 5 Sur 13 Sur 0 -- -- 84
2020-05-11 23:00:00 18.8 6 Sur 19 Sudeste 0 -- -- 83
2020-05-11 22:00:00 19.2 10 Sudeste 17 Sur 0 -- -- 79
2020-05-11 21:00:00 19.3 6 Sudeste 16 Sur 0 -- -- 77
2020-05-11 20:00:00 19.9 11 Sur 23 Sur 0 -- -- 74
2020-05-11 19:00:00 21.5 18 Sur 26 Sur 0 -- -- 66
2020-05-11 18:00:00 23.1 13 Sur 26 Sur 0 -- -- 60
2020-05-11 17:00:00 23.4 14 Sur 31 Sur 0 -- -- 60
2020-05-11 16:00:00 24 16 Sur 30 Sur 0 -- -- 56
2020-05-11 15:00:00 23.8 19 Sur 33 Sur 0 -- -- 57
2020-05-11 14:00:00 23.4 19 Sur 30 Sur 0 -- -- 60
2020-05-11 13:00:00 23.7 16 Sur 32 Sur 0 -- -- 58
2020-05-11 12:00:00 24.1 14 Sur 24 Sur 0 -- -- 57
2020-05-11 11:00:00 22.1 10 Sur 25 Sur 0 -- -- 62
2020-05-11 10:00:00 21.3 9 Sur 14 Sur 0 -- -- 64
2020-05-11 09:00:00 19.1 6 Sudoeste 12 Sudoeste 0 -- -- 75
2020-05-11 08:00:00 15.8 3 Noroeste 9 Noroeste 0 -- -- 84
2020-05-11 07:00:00 15.9 6 Oeste 9 Oeste 0 -- -- 88
2020-05-11 06:00:00 15.9 2 Noroeste 13 Norte 0 -- -- 88
2020-05-11 05:00:00 16.2 4 Oeste 5 Noroeste 0 -- -- 89
2020-05-11 04:00:00 16.8 3 Noroeste 4 Oeste 0 -- -- 88
2020-05-11 03:00:00 17 2 Noroeste 6 Sudeste 0 -- -- 88
2020-05-11 02:00:00 17.3 3 Sudoeste 14 Sudeste 0 -- -- 87
2020-05-11 01:00:00 17.5 5 Sur 14 Sudoeste 0 -- -- 87
2020-05-11 00:00:00 17.7 5 Sur 14 Sudoeste 0 -- -- 85
2020-05-10 23:00:00 18 7 Sur 15 Sur 0 -- -- 84
2020-05-10 22:00:00 18.5 8 Sur 18 Sur 0 -- -- 81
2020-05-10 21:00:00 19.3 8 Sur 21 Sudoeste 0 -- -- 73
2020-05-10 20:00:00 20.9 11 Sur 26 Sur 0 -- -- 63
2020-05-10 19:00:00 22.5 10 Sur 26 Sudeste 0 -- -- 59
2020-05-10 18:00:00 23.7 17 Sur 31 Sur 0 -- -- 57
2020-05-10 17:00:00 25 17 Sur 32 Sur 0 -- -- 53
2020-05-10 16:00:00 25.4 16 Sur 33 Sudoeste 0 -- -- 51
2020-05-10 15:00:00 25.8 22 Sur 39 Sudeste 0 -- -- 49
2020-05-10 14:00:00 25.2 12 Sur 39 Nordeste 0 -- -- 44
2020-05-10 13:00:00 24.9 26 Norte 46 Norte 0 -- -- 49
2020-05-10 12:00:00 23.7 17 Norte 50 Norte 0 -- -- 50
2020-05-10 11:00:00 22.9 23 Norte 38 Norte 0 -- -- 54
2020-05-10 10:00:00 21.3 14 Noroeste 33 Norte 0 -- -- 58
2020-05-10 09:00:00 19.7 10 Oeste 21 Norte 0 -- -- 59
2020-05-10 08:00:00 17.1 6 Norte 9 Norte 0 -- -- 76
2020-05-10 07:00:00 16.3 6 Noroeste 26 Norte 0 -- -- 73
2020-05-10 06:00:00 16.9 21 Norte 28 Nordeste 0 -- -- 72
2020-05-10 05:00:00 18 11 Norte 28 Norte 0 -- -- 64
2020-05-10 04:00:00 17.3 10 Noroeste 29 Noroeste 0 -- -- 79
2020-05-10 03:00:00 16.8 6 Norte 18 Noroeste 0 -- -- 82
2020-05-10 02:00:00 17 5 Norte 14 Este 0 -- -- 81
2020-05-10 01:00:00 17.3 8 Sudoeste 13 Sur 0 -- -- 85
2020-05-10 00:00:00 17.3 3 Norte 14 Sudoeste 0 -- -- 84
2020-05-09 23:00:00 17.9 3 Oeste 14 Sur 0 -- -- 83
2020-05-09 22:00:00 18.1 5 Sur 14 Sur 0 -- -- 82
2020-05-09 21:00:00 18.7 6 Sudeste 12 Sur 0 -- -- 80
2020-05-09 20:00:00 19.5 9 Sur 20 Sur 0 -- -- 77
2020-05-09 19:00:00 20.6 11 Sur 22 Sur 0 -- -- 72
2020-05-09 18:00:00 21.6 15 Sur 24 Sur 0 -- -- 68
2020-05-09 17:00:00 22.1 13 Sur 22 Sur 0 -- -- 67
2020-05-09 16:00:00 22.2 15 Sur 27 Sur 0 -- -- 67
2020-05-09 15:00:00 23.3 18 Sur 36 Sur 0 -- -- 61
2020-05-09 14:00:00 25.1 22 Sur 33 Sur 0 -- -- 57
2020-05-09 13:00:00 24.1 11 Sudoeste 28 Sur 0 -- -- 60
2020-05-09 12:00:00 22.7 13 Sur 24 Sudeste 0 -- -- 63
2020-05-09 11:00:00 21.8 12 Sudeste 19 Sudeste 0 -- -- 65
2020-05-09 10:00:00 20 6 Sudeste 14 Sur 0 -- -- 70
2020-05-09 09:00:00 18.6 6 Sur 11 Sur 0 -- -- 75
2020-05-09 08:00:00 16.1 4 Noroeste 8 Oeste 0 -- -- 83
2020-05-09 07:00:00 15.4 5 Oeste 6 Oeste 0 -- -- 84
2020-05-09 06:00:00 15.1 3 Noroeste 8 Noroeste 0 -- -- 82
2020-05-09 05:00:00 15.5 5 Noroeste 9 Noroeste 0 -- -- 80
2020-05-09 04:00:00 16 5 Oeste 8 Oeste 0 -- -- 79
2020-05-09 03:00:00 15.7 0 Calma 9 Norte 0 -- -- 77
2020-05-09 02:00:00 16.1 3 Norte 14 Nordeste 0 -- -- 75
2020-05-09 01:00:00 16.5 12 Nordeste 17 Nordeste 0 -- -- 70
2020-05-09 00:00:00 16.7 4 Nordeste 13 Norte 0 -- -- 67
2020-05-08 23:00:00 17.9 8 Norte 17 Norte 0 -- -- 66
2020-05-08 22:00:00 18.8 9 Nordeste 15 Nordeste 0 -- -- 68
2020-05-08 21:00:00 19.7 6 Sudoeste 23 Sudoeste 0 -- -- 67
2020-05-08 20:00:00 21.5 8 Oeste 42 Nordeste 0 -- -- 62
2020-05-08 19:00:00 22.8 23 Nordeste 41 Nordeste 0 -- -- 57
2020-05-08 18:00:00 23.8 27 Nordeste 42 Nordeste 0 -- -- 55
2020-05-08 17:00:00 24.3 29 Nordeste 48 Norte 0 -- -- 54
2020-05-08 16:00:00 24.5 33 Nordeste 48 Nordeste 0 -- -- 51
2020-05-08 15:00:00 24.8 32 Nordeste 45 Nordeste 0 -- -- 51
2020-05-08 14:00:00 24.9 29 Nordeste 47 Nordeste 0 -- -- 51
2020-05-08 13:00:00 24.1 29 Nordeste 49 Nordeste 0 -- -- 53
2020-05-08 12:00:00 23.8 26 Nordeste 41 Nordeste 0 -- -- 50
2020-05-08 11:00:00 22.6 24 Norte 39 Norte 0 -- -- 50
2020-05-08 10:00:00 20.8 21 Norte 33 Norte 0 -- -- 57
2020-05-08 09:00:00 18.8 18 Norte 28 Norte 0 -- -- 64
2020-05-08 08:00:00 16.2 0 Calma 10 Noroeste 0 -- -- 67
2020-05-08 07:00:00 15.8 5 Noroeste 20 Noroeste 0 -- -- 61
2020-05-08 06:00:00 16.5 13 Norte 20 Norte 0 -- -- 55
2020-05-08 05:00:00 16.7 12 Norte 18 Norte 0 -- -- 54
2020-05-08 04:00:00 16.8 9 Norte 26 Norte 0 -- -- 54
2020-05-08 03:00:00 16.9 19 Norte 31 Norte 0 -- -- 60
2020-05-08 02:00:00 17.3 16 Norte 36 Norte 0 -- -- 59
2020-05-08 01:00:00 16.8 15 Norte 27 Norte 0 -- -- 64
2020-05-08 00:00:00 17.6 17 Norte 32 Norte 0 -- -- 61
2020-05-07 23:00:00 17.7 16 Norte 32 Norte 0 -- -- 66
2020-05-07 22:00:00 17.8 20 Norte 30 Norte 0 -- -- 63
2020-05-07 21:00:00 18.3 21 Norte 37 Norte 0 -- -- 63
2020-05-07 20:00:00 19.3 21 Norte 33 Norte 0 -- -- 61
2020-05-07 19:00:00 20.5 15 Norte 32 Norte 0 -- -- 56
2020-05-07 18:00:00 20.6 22 Norte 38 Norte 0 -- -- 54
2020-05-07 17:00:00 20.6 26 Norte 39 Norte 0 -- -- 56
2020-05-07 16:00:00 21.2 28 Norte 41 Norte 0 -- -- 55
2020-05-07 15:00:00 21.5 26 Norte 40 Norte 0 -- -- 56
2020-05-07 14:00:00 21.8 28 Norte 46 Nordeste 0 -- -- 57
2020-05-07 13:00:00 22.8 33 Norte 51 Nordeste 0 -- -- 55
2020-05-07 12:00:00 22.3 31 Nordeste 47 Nordeste 0 -- -- 59
2020-05-07 11:00:00 21.8 27 Norte 43 Norte 0 -- -- 52
2020-05-07 10:00:00 20.5 24 Norte 38 Nordeste 0 -- -- 54
2020-05-07 09:00:00 18.6 6 Sudoeste 27 Nordeste 0 -- -- 70
2020-05-07 08:00:00 16.4 6 Norte 26 Norte 0 -- -- 69
2020-05-07 07:00:00 16.6 14 Norte 27 Norte 0 -- -- 64
2020-05-07 06:00:00 16.3 10 Norte 24 Norte 0 -- -- 67
2020-05-07 05:00:00 16.3 7 Norte 17 Norte 0 -- -- 64
2020-05-07 04:00:00 16.3 9 Norte 23 Norte 0 -- -- 71
2020-05-07 03:00:00 16.8 9 Norte 24 Norte 0 -- -- 67
2020-05-07 02:00:00 16.9 14 Norte 28 Norte 0 -- -- 67
2020-05-07 01:00:00 17.3 19 Norte 35 Norte 0 -- -- 67
2020-05-07 00:00:00 17.9 23 Norte 35 Norte 0 -- -- 61
2020-05-06 23:00:00 17.8 19 Norte 33 Norte 0 -- -- 66
2020-05-06 22:00:00 18.1 21 Norte 33 Norte 0 -- -- 67
2020-05-06 21:00:00 18.5 24 Norte 39 Norte 0 -- -- 70
2020-05-06 20:00:00 18.9 28 Norte 44 Norte 0 -- -- 71
2020-05-06 19:00:00 20.3 29 Nordeste 59 Nordeste 0 -- -- 69
2020-05-06 18:00:00 22 30 Norte 51 Nordeste 0 -- -- 58
2020-05-06 17:00:00 22.6 34 Nordeste 51 Nordeste 0 -- -- 60
2020-05-06 16:00:00 23 34 Nordeste 50 Nordeste 0 -- -- 58
2020-05-06 15:00:00 22.8 33 Nordeste 55 Nordeste 0 -- -- 55
2020-05-06 14:00:00 22.6 32 Nordeste 49 Nordeste 0 -- -- 57
2020-05-06 13:00:00 22.7 31 Nordeste 49 Nordeste 0 -- -- 57
2020-05-06 12:00:00 22.4 30 Nordeste 46 Nordeste 0 -- -- 54
2020-05-06 11:00:00 20.7 30 Norte 50 Norte 0 -- -- 60
2020-05-06 10:00:00 19.9 30 Norte 50 Nordeste 0 -- -- 63
2020-05-06 09:00:00 18.5 26 Norte 40 Norte 0 -- -- 64
2020-05-06 08:00:00 17.1 24 Norte 40 Norte 0 -- -- 67
2020-05-06 07:00:00 16.3 28 Norte 40 Norte 0 -- -- 69
2020-05-06 06:00:00 16.2 24 Norte 38 Norte 0 -- -- 70
2020-05-06 05:00:00 16.4 24 Norte 39 Norte 0 -- -- 67
2020-05-06 04:00:00 16.6 28 Norte 42 Norte 0 -- -- 66
2020-05-06 03:00:00 16.8 26 Norte 43 Norte 0 -- -- 65
2020-05-06 02:00:00 17.1 29 Norte 47 Norte 0 -- -- 60
2020-05-06 01:00:00 17.9 24 Norte 47 Norte 0 -- -- 49
2020-05-06 00:00:00 18 28 Norte 41 Norte 0 -- -- 50
2020-05-05 23:00:00 18.5 23 Norte 41 Norte 0 -- -- 44
2020-05-05 22:00:00 18.9 27 Norte 42 Norte 0 -- -- 41
2020-05-05 21:00:00 19.2 24 Norte 41 Norte 0 -- -- 40
2020-05-05 20:00:00 19.8 30 Norte 47 Norte 0 -- -- 49
2020-05-05 19:00:00 21.7 29 Norte 51 Norte 0 -- -- 46
2020-05-05 18:00:00 22.6 34 Nordeste 56 Nordeste 0 -- -- 43
2020-05-05 17:00:00 22.7 37 Nordeste 56 Nordeste 0 -- -- 54
2020-05-05 16:00:00 23.3 37 Nordeste 53 Nordeste 0 -- -- 51
2020-05-05 15:00:00 23.7 33 Nordeste 53 Nordeste 0 -- -- 50
2020-05-05 14:00:00 23.3 36 Nordeste 52 Norte 0 -- -- 52
2020-05-05 13:00:00 23.3 33 Nordeste 50 Nordeste 0 -- -- 50
2020-05-05 12:00:00 23 33 Nordeste 46 Nordeste 0 -- -- 49
2020-05-05 11:00:00 21.7 26 Norte 42 Nordeste 0 -- -- 53
2020-05-05 10:00:00 20.3 23 Norte 34 Nordeste 0 -- -- 57
2020-05-05 09:00:00 18.5 20 Norte 31 Norte 0 -- -- 59
2020-05-05 08:00:00 15.8 13 Norte 19 Norte 0 -- -- 64
2020-05-05 07:00:00 14.9 6 Norte 13 Norte 0 -- -- 65
2020-05-05 06:00:00 15.6 10 Norte 21 Norte 0 -- -- 68
2020-05-05 05:00:00 16.4 14 Norte 20 Norte 0 -- -- 66
2020-05-05 04:00:00 16.2 5 Norte 18 Norte 0 -- -- 68
2020-05-05 03:00:00 16.7 10 Norte 18 Norte 0 -- -- 69
2020-05-05 02:00:00 17.6 12 Norte 38 Norte 0 -- -- 66
2020-05-05 01:00:00 17.5 19 Norte 33 Norte 0 -- -- 68
2020-05-05 00:00:00 17.7 20 Norte 33 Norte 0 -- -- 67
2020-05-04 23:00:00 17.7 20 Norte 33 Norte 0 -- -- 70
2020-05-04 22:00:00 17.9 22 Norte 38 Norte 0 -- -- 72
2020-05-04 21:00:00 17.9 24 Norte 39 Norte 0 -- -- 75
2020-05-04 20:00:00 18.8 24 Norte 35 Norte 0 -- -- 74
2020-05-04 19:00:00 20.4 17 Norte 34 Norte 0 -- -- 68
2020-05-04 18:00:00 21.1 20 Nordeste 33 Nordeste 0 -- -- 67
2020-05-04 17:00:00 21.7 21 Nordeste 32 Nordeste 0 -- -- 66
2020-05-04 16:00:00 22.1 20 Nordeste 32 Nordeste 0 -- -- 62
2020-05-04 15:00:00 22.5 19 Nordeste 28 Nordeste 0 -- -- 63
2020-05-04 14:00:00 20.7 17 Nordeste 26 Nordeste 0 -- -- 71
2020-05-04 13:00:00 22.1 15 Nordeste 28 Nordeste 0 -- -- 65
2020-05-04 12:00:00 23.7 18 Nordeste 29 Nordeste 0 -- -- 59
2020-05-04 11:00:00 22.8 19 Nordeste 30 Este 0 -- -- 63
2020-05-04 10:00:00 21.1 20 Nordeste 32 Nordeste 0 -- -- 65
2020-05-04 09:00:00 19.7 15 Nordeste 24 Norte 0 -- -- 74
2020-05-04 08:00:00 16.8 9 Norte 14 Norte 0 -- -- 76
2020-05-04 07:00:00 15.3 5 Noroeste 8 Noroeste 0 -- -- 83
2020-05-04 06:00:00 15.5 2 Noroeste 9 Noroeste 0 -- -- 85
2020-05-04 05:00:00 15.6 3 Noroeste 9 Norte 0 -- -- 84
2020-05-04 04:00:00 15.9 3 Norte 5 Norte 0 -- -- 83
2020-05-04 03:00:00 16.4 0 Calma 3 Oeste 0 -- -- 85
2020-05-04 02:00:00 17 2 Oeste 5 Este 0 -- -- 86
2020-05-04 01:00:00 18.1 3 Este 9 Sudeste 0 -- -- 80
2020-05-04 00:00:00 18.1 5 Sur 14 Sudeste 0 -- -- 82
2020-05-03 23:00:00 18.2 7 Sur 13 Sur 0 -- -- 83
2020-05-03 22:00:00 18.3 5 Sur 10 Sur 0 -- -- 84
2020-05-03 21:00:00 18.7 4 Sudeste 15 Nordeste 0 -- -- 81
2020-05-03 20:00:00 20.2 12 Nordeste 24 Nordeste 0 -- -- 75
2020-05-03 19:00:00 22.3 18 Nordeste 28 Nordeste 0 -- -- 67
2020-05-03 18:00:00 24 17 Nordeste 28 Este 0 -- -- 62
2020-05-03 17:00:00 25.2 16 Nordeste 26 Nordeste 0 -- -- 58
2020-05-03 16:00:00 26.5 15 Nordeste 24 Este 0 -- -- 54
2020-05-03 15:00:00 25.9 13 Este 20 Nordeste 0 -- -- 55
2020-05-03 14:00:00 24.1 10 Sudeste 22 Sudeste 0 -- -- 59
2020-05-03 13:00:00 23.6 11 Sudeste 22 Sudeste 0 -- -- 61
2020-05-03 12:00:00 22.2 13 Sur 21 Sur 0 -- -- 66
2020-05-03 11:00:00 20.6 9 Sudeste 18 Sur 0 -- -- 70
2020-05-03 10:00:00 19 9 Sur 17 Sur 0 -- -- 74
2020-05-03 09:00:00 17.1 6 Sur 9 Sur 0 -- -- 81
2020-05-03 08:00:00 14.5 0 Calma 5 Nordeste 0 -- -- 88
2020-05-03 07:00:00 13.7 2 Noroeste 9 Norte 0 -- -- 88
2020-05-03 06:00:00 14 6 Norte 15 Norte 0 -- -- 91
2020-05-03 05:00:00 14.8 9 Norte 12 Norte 0 -- -- 93
2020-05-03 04:00:00 15.1 5 Norte 8 Nordeste 0 -- -- 94
2020-05-03 03:00:00 15.8 0 Calma 8 Sur 0 -- -- 93
2020-05-03 02:00:00 16.2 0 Calma 3 Sudeste 0 -- -- 92
2020-05-03 01:00:00 16.3 4 Sudoeste 9 Sudoeste 0 -- -- 90
2020-05-03 00:00:00 16.7 2 Sudoeste 4 Oeste 0 -- -- 86
2020-05-02 23:00:00 17.4 0 Calma 4 Norte 0 -- -- 85
2020-05-02 22:00:00 18 3 Norte 13 Nordeste 0 -- -- 84
2020-05-02 21:00:00 19 9 Nordeste 13 Nordeste 0 -- -- 79
2020-05-02 20:00:00 21.1 9 Nordeste 14 Este 0 -- -- 70
2020-05-02 19:00:00 22.7 9 Nordeste 17 Nordeste 0 -- -- 65
2020-05-02 18:00:00 23.5 10 Sudeste 19 Este 0 -- -- 62
2020-05-02 17:00:00 24.9 10 Este 19 Este 0 -- -- 57
2020-05-02 16:00:00 24.7 10 Este 18 Este 0 -- -- 57
2020-05-02 15:00:00 25.1 12 Este 22 Este 0 -- -- 55
2020-05-02 14:00:00 24.5 12 Nordeste 20 Nordeste 0 -- -- 56
2020-05-02 13:00:00 24.1 13 Nordeste 24 Nordeste 0 -- -- 57
2020-05-02 12:00:00 23.5 17 Nordeste 24 Nordeste 0 -- -- 58
2020-05-02 11:00:00 21.8 18 Nordeste 30 Nordeste 0 -- -- 63
2020-05-02 10:00:00 19.9 18 Nordeste 27 Nordeste 0 -- -- 69
2020-05-02 09:00:00 18 12 Nordeste 18 Nordeste 0 -- -- 75
2020-05-02 08:00:00 15.5 14 Nordeste 19 Nordeste 0 -- -- 78
2020-05-02 07:00:00 14.9 12 Nordeste 38 Nordeste 0 -- -- 82
2020-05-02 06:00:00 15.5 31 Norte 46 Nordeste 0 -- -- 82
2020-05-02 05:00:00 15.7 34 Norte 49 Norte 0 -- -- 81
2020-05-02 04:00:00 15.8 27 Norte 46 Nordeste 0 -- -- 80
2020-05-02 03:00:00 15.9 28 Norte 41 Nordeste 0 -- -- 80
2020-05-02 02:00:00 16.3 22 Norte 36 Norte 0 -- -- 80
2020-05-02 01:00:00 16.6 14 Norte 26 Norte 0 -- -- 75
2020-05-02 00:00:00 17.1 15 Norte 46 Norte 0 -- -- 75
2020-05-01 23:00:00 17 27 Norte 43 Norte 0 -- -- 78
2020-05-01 22:00:00 17.6 15 Nordeste 41 Norte 0 -- -- 78
2020-05-01 21:00:00 18.2 21 Norte 40 Nordeste 0 -- -- 77
2020-05-01 20:00:00 19.1 25 Norte 42 Norte 0 -- -- 74
2020-05-01 19:00:00 21.1 28 Nordeste 43 Nordeste 0 -- -- 66
2020-05-01 18:00:00 22.3 29 Nordeste 47 Nordeste 0 -- -- 60
2020-05-01 17:00:00 23.2 32 Norte 49 Nordeste 0 -- -- 56
2020-05-01 16:00:00 23.7 32 Nordeste 53 Nordeste 0 -- -- 55
2020-05-01 15:00:00 23.6 34 Nordeste 62 Nordeste 0 -- -- 55
2020-05-01 14:00:00 23.5 34 Nordeste 54 Nordeste 0 -- -- 54
2020-05-01 13:00:00 23.3 32 Nordeste 51 Nordeste 0 -- -- 57
2020-05-01 12:00:00 22.3 31 Nordeste 49 Nordeste 0 -- -- 59
2020-05-01 11:00:00 20.7 35 Nordeste 51 Nordeste 0 -- -- 62
2020-05-01 10:00:00 21.2 26 Nordeste 41 Norte 0 -- -- 58
2020-05-01 09:00:00 18.3 25 Norte 47 Norte 0 -- -- 67
2020-05-01 08:00:00 15.9 27 Norte 41 Norte 0 -- -- 76
2020-05-01 07:00:00 15.9 16 Norte 33 Norte 0 -- -- 69
2020-05-01 06:00:00 16.4 26 Norte 46 Norte 0 -- -- 65
2020-05-01 05:00:00 15.9 25 Nordeste 40 Norte 0 -- -- 77
2020-05-01 04:00:00 16.4 24 Norte 41 Norte 0 -- -- 73
2020-05-01 03:00:00 16.5 22 Norte 46 Norte 0 -- -- 72
2020-05-01 02:00:00 16.9 26 Norte 45 Norte 0 -- -- 71
2020-05-01 01:00:00 17 27 Norte 42 Norte 0 -- -- 70
2020-05-01 00:00:00 17.3 25 Norte 40 Norte 0 -- -- 68
2020-04-30 23:00:00 18 26 Norte 39 Norte 0 -- -- 64
2020-04-30 22:00:00 20.3 25 Norte 44 Norte 0 -- -- 51
2020-04-30 21:00:00 19.9 26 Norte 39 Norte 0 -- -- 57
2020-04-30 20:00:00 22.3 20 Norte 47 Norte 0 -- -- 43
2020-04-30 19:00:00 24.4 26 Norte 44 Norte 0 -- -- 38
2020-04-30 18:00:00 25.3 28 Norte 46 Nordeste 0 -- -- 39
2020-04-30 17:00:00 25.4 30 Nordeste 46 Nordeste 0 -- -- 44
2020-04-30 16:00:00 26 26 Nordeste 51 Norte 0 -- -- 44
2020-04-30 15:00:00 25.7 29 Nordeste 52 Norte 0 -- -- 42
2020-04-30 14:00:00 24.8 37 Norte 62 Norte 0 -- -- 39
2020-04-30 13:00:00 24.8 30 Norte 52 Norte 0 -- -- 38
2020-04-30 12:00:00 23.5 33 Norte 52 Norte 0 -- -- 38
2020-04-30 11:00:00 22.6 30 Norte 44 Norte 0 -- -- 38
2020-04-30 10:00:00 21.4 24 Norte 44 Norte 0 -- -- 43
2020-04-30 09:00:00 20.4 23 Norte 41 Norte 0 -- -- 41
2020-04-30 08:00:00 18.9 22 Norte 43 Norte 0 -- -- 42
2020-04-30 07:00:00 17.9 21 Norte 38 Norte 0 -- -- 43
2020-04-30 06:00:00 18.7 25 Norte 42 Norte 0 -- -- 38
2020-04-30 05:00:00 19.1 28 Norte 50 Norte 0 -- -- 33
2020-04-30 04:00:00 19.2 32 Norte 51 Norte 0 -- -- 32
2020-04-30 03:00:00 17.4 26 Norte 43 Norte 0 -- -- 51
2020-04-30 02:00:00 16.2 24 Norte 51 Norte 0 -- -- 59
2020-04-30 01:00:00 16.1 29 Norte 46 Norte 0 -- -- 65
2020-04-30 00:00:00 16.4 28 Norte 46 Norte 0 -- -- 61
2020-04-29 23:00:00 17.1 24 Norte 39 Norte 0 -- -- 49
2020-04-29 22:00:00 17.1 21 Norte 30 Norte 0 -- -- 48
2020-04-29 21:00:00 18.3 6 Norte 29 Norte 0 -- -- 55
2020-04-29 20:00:00 19.5 19 Norte 38 Norte 0 -- -- 49
2020-04-29 19:00:00 21.5 22 Nordeste 40 Nordeste 0 -- -- 51
2020-04-29 18:00:00 22.2 27 Norte 49 Nordeste 0 -- -- 50
2020-04-29 17:00:00 22.6 31 Nordeste 51 Norte 0 -- -- 51
2020-04-29 16:00:00 22.8 33 Nordeste 53 Nordeste 0 -- -- 52
2020-04-29 15:00:00 22.7 39 Nordeste 57 Nordeste 0 -- -- 49
2020-04-29 14:00:00 22.7 36 Norte 55 Nordeste 0 -- -- 48
2020-04-29 13:00:00 22.4 36 Nordeste 61 Nordeste 0 -- -- 51
2020-04-29 12:00:00 21.3 36 Norte 56 Norte 0 -- -- 54
2020-04-29 11:00:00 20.4 34 Norte 54 Nordeste 0 -- -- 56
2020-04-29 10:00:00 18.9 32 Norte 49 Norte 0 -- -- 61
2020-04-29 09:00:00 17.7 19 Norte 35 Norte 0 -- -- 63
2020-04-29 08:00:00 16.8 14 Norte 31 Norte 0 -- -- 66
2020-04-29 07:00:00 16.5 15 Norte 45 Norte 0 -- -- 58
2020-04-29 06:00:00 16.4 28 Norte 49 Norte 0 -- -- 67
2020-04-29 05:00:00 15.9 21 Norte 33 Norte 0 -- -- 67
2020-04-29 04:00:00 16 18 Norte 30 Norte 0 -- -- 65
2020-04-29 03:00:00 16.1 18 Norte 30 Norte 0 -- -- 64
2020-04-29 02:00:00 15.7 13 Norte 28 Norte 0 -- -- 74
2020-04-29 01:00:00 16.2 15 Norte 27 Norte 0 -- -- 78
2020-04-29 00:00:00 16.3 21 Norte 30 Nordeste 0 -- -- 73
2020-04-28 23:00:00 16.4 20 Norte 32 Nordeste 0 -- -- 77
2020-04-28 22:00:00 16.8 19 Nordeste 32 Nordeste 0 -- -- 78
2020-04-28 21:00:00 17.3 21 Norte 35 Norte 0 -- -- 76
2020-04-28 20:00:00 18.4 27 Norte 44 Norte 0 -- -- 72
2020-04-28 19:00:00 20.4 31 Norte 54 Norte 0 -- -- 58
2020-04-28 18:00:00 22.1 28 Norte 42 Nordeste 0 -- -- 52
2020-04-28 17:00:00 23.7 28 Nordeste 45 Nordeste 0 -- -- 49
2020-04-28 16:00:00 24.9 27 Norte 50 Nordeste 0 -- -- 42
2020-04-28 15:00:00 24.7 27 Nordeste 49 Nordeste 0 -- -- 47
2020-04-28 14:00:00 24.8 29 Nordeste 50 Nordeste 0 -- -- 41
2020-04-28 13:00:00 23.8 29 Nordeste 49 Norte 0 -- -- 48
2020-04-28 12:00:00 23.1 26 Nordeste 39 Nordeste 0 -- -- 52
2020-04-28 11:00:00 21.4 16 Norte 36 Norte 0 -- -- 59
2020-04-28 10:00:00 19.8 10 Sur 18 Sur 0 -- -- 62
2020-04-28 09:00:00 17.8 3 Este 6 Sudeste 0 -- -- 72
2020-04-28 08:00:00 14.2 2 Noroeste 10 Noroeste 0 -- -- 82
2020-04-28 07:00:00 13.9 5 Norte 9 Norte 0 -- -- 80
2020-04-28 06:00:00 14.5 3 Oeste 9 Norte 0 -- -- 79
2020-04-28 05:00:00 14.4 5 Norte 9 Noroeste 0 -- -- 79
2020-04-28 04:00:00 15.2 5 Noroeste 20 Norte 0 -- -- 73
2020-04-28 03:00:00 15.8 14 Norte 22 Norte 0 -- -- 73
2020-04-28 02:00:00 15.3 5 Noroeste 11 Noroeste 0 -- -- 78
2020-04-28 01:00:00 15.7 7 Norte 12 Nordeste 0 -- -- 77
2020-04-28 00:00:00 16.4 3 Norte 4 Norte 0 -- -- 78
2020-04-27 23:00:00 17 0 Calma 8 Sur 0 -- -- 77
2020-04-27 22:00:00 17.1 5 Sur 8 Sudeste 0 -- -- 78
2020-04-27 21:00:00 17.6 4 Sudeste 12 Sur 0 -- -- 76
2020-04-27 20:00:00 18.1 7 Sur 14 Sur 0 -- -- 74
2020-04-27 19:00:00 18.6 3 Sudeste 10 Sur 0 -- -- 73
2020-04-27 18:00:00 18.6 5 Nordeste 9 Sur 0 -- -- 69
2020-04-27 17:00:00 18.3 4 Sudeste 13 Sudeste 0 -- -- 70
2020-04-27 16:00:00 18.7 8 Este 17 Este 0 -- -- 68
2020-04-27 15:00:00 18.8 4 Sudoeste 14 Sur 0 -- -- 69
2020-04-27 14:00:00 18.6 8 Sudeste 15 Sudeste 0 -- -- 69
2020-04-27 13:00:00 19.9 9 Sudeste 21 Este 0 -- -- 65
2020-04-27 12:00:00 21.4 10 Sudeste 19 Sudeste 0 -- -- 60
2020-04-27 11:00:00 20.5 8 Sudeste 18 Sur 0 -- -- 60
2020-04-27 10:00:00 18.5 4 Sudeste 12 Sudeste 0 -- -- 68
2020-04-27 09:00:00 17.1 6 Sudoeste 10 Sudoeste 0 -- -- 75
2020-04-27 08:00:00 14.1 3 Noroeste 4 Noroeste 0 -- -- 80
2020-04-27 07:00:00 13 4 Noroeste 8 Noroeste 0 -- -- 77
2020-04-27 06:00:00 13.4 4 Noroeste 8 Noroeste 0 -- -- 82
2020-04-27 05:00:00 13.6 5 Noroeste 6 Noroeste 0 -- -- 82
2020-04-27 04:00:00 13.8 2 Norte 6 Noroeste 0 -- -- 81
2020-04-27 03:00:00 14 5 Noroeste 6 Noroeste 0 -- -- 82
2020-04-27 02:00:00 14 4 Noroeste 7 Norte 0 -- -- 81
2020-04-27 01:00:00 14.4 4 Norte 6 Norte 0 -- -- 79
2020-04-27 00:00:00 14.8 3 Oeste 5 Oeste 0 -- -- 79
2020-04-26 23:00:00 15.1 0 Calma 8 Oeste 0 -- -- 76
2020-04-26 22:00:00 15.8 3 Noroeste 8 Norte 0 -- -- 74
2020-04-26 21:00:00 16.4 6 Nordeste 14 Nordeste 0 -- -- 73
2020-04-26 20:00:00 17.9 8 Nordeste 17 Nordeste 0 -- -- 67
2020-04-26 19:00:00 18.9 9 Nordeste 18 Nordeste 0 -- -- 63
2020-04-26 18:00:00 19.1 12 Nordeste 21 Nordeste 0 -- -- 62
2020-04-26 17:00:00 19.1 14 Nordeste 24 Norte 0 -- -- 64
2020-04-26 16:00:00 19.5 14 Nordeste 27 Nordeste 0 -- -- 62
2020-04-26 15:00:00 21.4 21 Nordeste 37 Nordeste 0 -- -- 57
2020-04-26 14:00:00 22.5 22 Nordeste 40 Este 0 -- -- 55
2020-04-26 13:00:00 22.4 22 Nordeste 39 Nordeste 0 -- -- 53
2020-04-26 12:00:00 21.3 20 Nordeste 32 Nordeste 0 -- -- 54
2020-04-26 11:00:00 20.8 17 Nordeste 28 Nordeste 0 -- -- 54
2020-04-26 10:00:00 19.4 12 Nordeste 23 Norte 0 -- -- 54
2020-04-26 09:00:00 -- 0 Calma -- -- 0 -- -- --
2020-04-26 08:00:00 14.2 9 Norte 22 Norte 0 -- -- 53
2020-04-26 07:00:00 14.1 17 Norte 23 Norte 0 -- -- 58
2020-04-26 06:00:00 13.5 13 Norte 18 Norte 0 -- -- 52
2020-04-26 05:00:00 13.2 8 Norte 15 Norte 0 -- -- 64
2020-04-26 04:00:00 13.9 12 Norte 23 Nordeste 0 -- -- 70
2020-04-26 03:00:00 14.5 17 Norte 25 Nordeste 0 -- -- 70
2020-04-26 02:00:00 14.9 16 Norte 27 Norte 0 -- -- 69
2020-04-26 01:00:00 15 15 Norte 27 Norte 0 -- -- 75
2020-04-26 00:00:00 15.4 12 Nordeste 30 Norte 0 -- -- 70